Ondangwa Airport

Jump to: basic info | weather | frequencies | runways | comments

Related pages: nearby airports | nearby navaids | notams | map

Basic information (top)

Codes: OND FYOA
Location: lon -17.878201, lat 15.952600, elev 3,599 ft / 1,097 m msl
Status: medium_airport
Scheduled airline service: yes
Links: Wikipedia Mobile

Weather (top)

Current conditions (rec'd 2014/04/23 16:00Z):

FYOA 231600Z AUTO 23005KT //// // ////// 29/11 Q1013

Airport forecast (rec'd 2014/03/20 03:30Z):

TAF FYOA 200300Z 2003/2015 22009KT 8000 -SHRA FEW020CB BKN080 
      BECMG 2007/2008 9999 SCT040TCU PROB30 
      TEMPO 2012/2014 8000 TSRA SCT020CB BKN040TCU

Frequencies (top)

Verify before use: may be inaccurate or out of date.

APP: 125.6 MHz (APP)
TWR: 119.7 MHz (TWR)

Runways (top)

08/26: 9,800 x 98 ft (2,987 x 30 m) — paved — lighted

16/34: 4,423 x 98 ft (1,348 x 30 m) — gravel — not lighted

Latest comments (top)

No comments yet for Ondangwa Airport

More... (top)

See also NOTAMs and nearby airports and navaids, or visit the Ondangwa Airport page at the main OurAirports website..